createdAt,value
2023-06-23T00:01:01.433Z,23.80
2023-06-23T00:03:49.877Z,23.70
2023-06-23T00:06:37.491Z,23.60
2023-06-23T00:09:24.987Z,23.50
2023-06-23T00:12:12.555Z,23.40
2023-06-23T00:15:00.226Z,23.40
2023-06-23T00:17:49.304Z,23.30
2023-06-23T00:20:37.483Z,23.30
2023-06-23T00:23:25.059Z,23.30
2023-06-23T00:26:12.709Z,23.30
2023-06-23T00:29:00.299Z,23.20
2023-06-23T00:31:47.859Z,23.20
2023-06-23T00:34:35.426Z,23.20
2023-06-23T00:37:22.972Z,23.20
2023-06-23T00:40:14.157Z,23.20
2023-06-23T00:43:01.989Z,23.20
2023-06-23T00:45:50.856Z,23.20
2023-06-23T00:48:39.416Z,23.10
2023-06-23T00:51:27.857Z,23.20
2023-06-23T00:54:15.953Z,23.20
2023-06-23T00:57:05.413Z,23.20
2023-06-23T00:59:54.040Z,23.20
2023-06-23T01:02:42.336Z,23.20
2023-06-23T01:05:41.631Z,23.20
2023-06-23T01:08:49.800Z,23.20
2023-06-23T01:11:59.834Z,23.20
2023-06-23T01:15:08.907Z,23.20
2023-06-23T01:18:15.025Z,23.10
2023-06-23T01:21:10.060Z,23.10
2023-06-23T01:24:13.098Z,23.10
2023-06-23T01:27:09.405Z,23.10
2023-06-23T01:30:03.349Z,23.00
2023-06-23T01:32:57.849Z,23.00
2023-06-23T01:35:55.190Z,22.90
2023-06-23T01:38:51.771Z,22.90
2023-06-23T01:41:53.523Z,22.90
2023-06-23T01:44:47.448Z,22.80
2023-06-23T01:47:43.109Z,22.80
2023-06-23T01:50:33.505Z,22.80
2023-06-23T01:53:22.472Z,22.70
2023-06-23T01:56:13.633Z,22.70
2023-06-23T01:59:03.611Z,22.70
2023-06-23T02:01:53.851Z,22.60
2023-06-23T02:04:45.029Z,22.60
2023-06-23T02:07:35.724Z,22.50
2023-06-23T02:10:26.098Z,22.40
2023-06-23T02:13:17.811Z,22.40
2023-06-23T02:16:09.481Z,22.30
2023-06-23T02:18:58.618Z,22.20
2023-06-23T02:21:47.387Z,22.20
2023-06-23T02:24:37.122Z,22.20
2023-06-23T02:27:27.218Z,22.10
2023-06-23T02:30:16.513Z,22.10
2023-06-23T02:33:04.573Z,22.00
2023-06-23T02:35:58.870Z,22.00
2023-06-23T02:38:49.957Z,22.00
2023-06-23T02:41:41.359Z,21.90
2023-06-23T02:44:39.027Z,21.90
2023-06-23T02:47:29.407Z,21.80
2023-06-23T02:50:24.272Z,21.70
2023-06-23T02:53:19.891Z,21.70
2023-06-23T02:56:18.388Z,21.70
2023-06-23T02:59:09.906Z,21.70
2023-06-23T03:01:59.944Z,21.70
2023-06-23T03:04:49.191Z,21.70
2023-06-23T03:07:40.049Z,21.80
2023-06-23T03:10:29.872Z,21.70
2023-06-23T03:13:17.880Z,21.80
2023-06-23T03:16:13.290Z,21.70
2023-06-23T03:19:30.606Z,21.70
2023-06-23T03:22:19.582Z,21.60
2023-06-23T03:25:18.269Z,21.60
2023-06-23T03:28:11.251Z,21.50
2023-06-23T03:31:16.956Z,21.50
2023-06-23T03:34:06.095Z,21.40
2023-06-23T03:36:57.550Z,21.40
2023-06-23T03:39:52.262Z,21.40
2023-06-23T03:42:48.844Z,21.40
2023-06-23T03:45:38.917Z,21.40
2023-06-23T03:48:31.788Z,21.40
2023-06-23T03:51:22.134Z,21.30
2023-06-23T03:54:13.449Z,21.20
2023-06-23T03:57:05.892Z,21.10
2023-06-23T03:59:56.192Z,20.90
2023-06-23T04:02:47.360Z,20.80
2023-06-23T04:05:41.228Z,20.60
2023-06-23T04:08:33.288Z,20.50
2023-06-23T04:11:23.387Z,20.40
2023-06-23T04:14:13.469Z,20.30
2023-06-23T04:17:04.101Z,20.30
2023-06-23T04:19:58.897Z,20.20
2023-06-23T04:22:50.458Z,20.20
2023-06-23T04:25:40.652Z,20.20
2023-06-23T04:28:31.220Z,20.20
2023-06-23T04:31:22.355Z,20.30
2023-06-23T04:34:09.977Z,20.40
2023-06-23T04:37:36.408Z,20.50
2023-06-23T04:40:42.203Z,20.60
2023-06-23T04:43:47.605Z,20.80
2023-06-23T04:46:42.460Z,20.90
2023-06-23T04:49:35.021Z,20.90
2023-06-23T04:52:26.094Z,20.90
2023-06-23T04:55:18.232Z,20.70
2023-06-23T04:58:09.635Z,20.60
2023-06-23T05:00:59.555Z,20.70
2023-06-23T05:03:51.511Z,20.70
2023-06-23T05:06:40.976Z,20.80
2023-06-23T05:09:31.418Z,21.20
2023-06-23T05:12:23.268Z,21.80
2023-06-23T05:15:13.179Z,22.20
2023-06-23T05:18:06.652Z,22.30
2023-06-23T05:20:58.895Z,22.60
2023-06-23T05:23:53.359Z,22.90
2023-06-23T05:26:43.677Z,23.30
2023-06-23T05:29:35.376Z,23.50
2023-06-23T05:32:29.000Z,23.90
2023-06-23T05:35:18.421Z,23.90
2023-06-23T05:38:09.254Z,24.00
2023-06-23T05:40:58.078Z,24.60
2023-06-23T05:43:45.741Z,25.00
2023-06-23T05:46:39.269Z,25.10
2023-06-23T05:49:30.660Z,24.80
2023-06-23T05:52:22.564Z,24.40
2023-06-23T05:55:13.275Z,24.50
2023-06-23T05:58:08.157Z,24.00
2023-06-23T06:01:00.965Z,23.30
2023-06-23T06:04:01.696Z,22.80
2023-06-23T06:06:53.556Z,22.50
2023-06-23T06:09:43.750Z,22.30
2023-06-23T06:12:35.848Z,22.10
2023-06-23T06:15:25.246Z,22.10
2023-06-23T06:18:17.532Z,22.30
2023-06-23T06:21:08.648Z,22.50
2023-06-23T06:23:59.093Z,22.90
2023-06-23T06:26:47.458Z,23.30
2023-06-23T06:29:37.415Z,23.20
2023-06-23T06:32:30.557Z,23.30
2023-06-23T06:35:20.876Z,23.40
2023-06-23T06:38:10.554Z,23.40
2023-06-23T06:40:59.735Z,23.10
2023-06-23T06:43:48.873Z,22.90
2023-06-23T06:46:39.566Z,22.90
2023-06-23T06:49:28.946Z,22.90
2023-06-23T06:52:19.362Z,23.00
2023-06-23T06:55:10.554Z,23.00
2023-06-23T06:57:58.885Z,23.00
2023-06-23T07:00:47.725Z,23.00
2023-06-23T07:03:44.218Z,23.10
2023-06-23T07:06:32.436Z,23.10
2023-06-23T07:09:20.158Z,23.30
2023-06-23T07:12:08.842Z,23.40
2023-06-23T07:14:56.375Z,23.60
2023-06-23T07:17:44.772Z,23.70
2023-06-23T07:20:32.748Z,23.80
2023-06-23T07:23:20.602Z,23.80
2023-06-23T07:26:08.098Z,23.80
2023-06-23T07:28:56.096Z,23.80
2023-06-23T07:31:43.656Z,23.90
2023-06-23T07:34:31.299Z,23.70
2023-06-23T07:37:18.942Z,23.40
2023-06-23T07:40:10.924Z,23.30
2023-06-23T07:42:58.579Z,23.20
2023-06-23T07:45:46.070Z,23.40
2023-06-23T07:48:33.633Z,23.80
2023-06-23T07:51:21.130Z,24.00
2023-06-23T07:54:08.599Z,24.40
2023-06-23T07:56:58.000Z,24.40
2023-06-23T07:59:45.468Z,24.60
2023-06-23T08:02:33.136Z,24.60
2023-06-23T08:05:20.814Z,24.60
2023-06-23T08:08:08.553Z,24.50
2023-06-23T08:10:56.177Z,24.20
2023-06-23T08:13:43.760Z,23.80
2023-06-23T08:16:31.392Z,23.90
2023-06-23T08:19:24.019Z,23.70
2023-06-23T08:22:11.984Z,23.50
2023-06-23T08:24:59.557Z,23.40
2023-06-23T08:27:47.262Z,23.30
2023-06-23T08:30:35.071Z,23.10
2023-06-23T08:33:22.865Z,22.90
2023-06-23T08:36:10.629Z,22.90
2023-06-23T08:38:58.275Z,22.80
2023-06-23T08:41:49.143Z,22.80
2023-06-23T08:44:46.228Z,22.70
2023-06-23T08:47:42.717Z,22.70
2023-06-23T08:50:31.328Z,22.70
2023-06-23T08:53:25.115Z,22.70
2023-06-23T08:56:15.420Z,22.80
2023-06-23T08:59:03.283Z,23.00
2023-06-23T09:01:52.714Z,23.40
2023-06-23T09:04:43.105Z,23.60
2023-06-23T09:07:30.795Z,23.30
2023-06-23T09:10:19.853Z,23.10
2023-06-23T09:13:37.891Z,22.90
2023-06-23T09:16:26.599Z,22.70
2023-06-23T09:19:17.224Z,22.70
2023-06-23T09:22:08.980Z,22.50
2023-06-23T09:24:57.769Z,22.50
2023-06-23T09:27:45.281Z,22.40
2023-06-23T09:30:37.303Z,22.60
2023-06-23T09:33:27.127Z,22.50
2023-06-23T09:36:14.819Z,22.50
2023-06-23T09:39:05.070Z,22.50
2023-06-23T09:41:58.988Z,22.30
2023-06-23T09:44:48.234Z,22.20
2023-06-23T09:47:39.502Z,21.90
2023-06-23T09:50:28.499Z,21.40
2023-06-23T09:53:21.537Z,21.30
2023-06-23T09:56:16.919Z,21.30
2023-06-23T09:59:04.612Z,21.50
2023-06-23T10:01:52.212Z,21.70
2023-06-23T10:04:39.882Z,22.10
2023-06-23T10:07:29.631Z,22.30
2023-06-23T10:10:35.811Z,22.60
2023-06-23T10:13:23.684Z,22.70
2023-06-23T10:16:12.188Z,22.40
2023-06-23T10:19:00.443Z,22.20
2023-06-23T10:21:48.934Z,21.80
2023-06-23T10:24:38.020Z,21.80
2023-06-23T10:27:30.931Z,21.70
2023-06-23T10:30:21.306Z,21.60
2023-06-23T10:33:21.502Z,21.60
2023-06-23T10:36:12.863Z,21.60
2023-06-23T10:39:05.921Z,21.70
2023-06-23T10:41:54.882Z,21.70
2023-06-23T10:44:44.169Z,21.70
2023-06-23T10:47:31.820Z,21.80
2023-06-23T10:50:20.518Z,21.60
2023-06-23T10:53:20.180Z,21.70
2023-06-23T10:56:10.029Z,21.90
2023-06-23T10:58:58.617Z,22.00
2023-06-23T11:02:01.649Z,22.10
2023-06-23T11:04:56.670Z,21.90
2023-06-23T11:08:13.636Z,21.80
2023-06-23T11:11:09.821Z,21.70
2023-06-23T11:13:58.221Z,21.90
2023-06-23T11:16:51.390Z,22.10
2023-06-23T11:19:40.966Z,22.20
2023-06-23T11:22:30.585Z,22.30
2023-06-23T11:25:31.318Z,22.40
2023-06-23T11:28:39.868Z,22.50
2023-06-23T11:31:30.354Z,22.50
2023-06-23T11:34:20.770Z,22.60
2023-06-23T11:37:08.479Z,22.90
2023-06-23T11:39:57.044Z,23.10
2023-06-23T11:42:47.799Z,23.30
2023-06-23T11:45:35.400Z,23.20
2023-06-23T11:48:30.310Z,22.80
2023-06-23T11:51:19.712Z,22.50
2023-06-23T11:54:10.823Z,22.20
2023-06-23T11:57:04.702Z,22.10
2023-06-23T11:59:54.015Z,21.90
2023-06-23T12:02:47.052Z,21.80
2023-06-23T12:05:37.947Z,21.80
2023-06-23T12:08:28.260Z,21.80
2023-06-23T12:11:15.876Z,21.90
2023-06-23T12:14:04.273Z,22.00
2023-06-23T12:16:53.340Z,22.20
2023-06-23T12:19:43.012Z,22.30
2023-06-23T12:22:38.609Z,22.10
2023-06-23T12:25:33.640Z,21.90
2023-06-23T12:28:21.741Z,21.80
2023-06-23T12:31:09.438Z,21.50
2023-06-23T12:34:00.398Z,21.20
2023-06-23T12:36:49.338Z,21.00
2023-06-23T12:39:36.809Z,20.70
2023-06-23T12:42:24.555Z,20.50
2023-06-23T12:45:12.143Z,20.30
2023-06-23T12:48:00.710Z,20.20
2023-06-23T12:50:48.512Z,20.10
2023-06-23T12:53:36.881Z,20.20
2023-06-23T12:56:24.452Z,20.20
2023-06-23T12:59:12.005Z,20.20
2023-06-23T13:02:02.587Z,20.40
2023-06-23T13:04:50.194Z,20.60
2023-06-23T13:07:37.713Z,21.10
2023-06-23T13:10:27.843Z,21.50
2023-06-23T13:13:15.544Z,22.00
2023-06-23T13:16:03.201Z,22.40
2023-06-23T13:18:50.786Z,22.70
2023-06-23T13:21:38.293Z,22.90
2023-06-23T13:24:25.828Z,23.30
2023-06-23T13:27:13.934Z,23.30
2023-06-23T13:30:01.566Z,23.50
2023-06-23T13:32:49.359Z,23.30
2023-06-23T13:35:37.040Z,23.30
2023-06-23T13:38:24.656Z,23.20
2023-06-23T13:41:12.150Z,23.10
2023-06-23T13:43:59.735Z,22.90
2023-06-23T13:46:48.301Z,22.80
2023-06-23T13:49:35.802Z,22.60
2023-06-23T13:52:23.352Z,22.50
2023-06-23T13:55:13.854Z,22.50
2023-06-23T13:58:03.037Z,22.50
2023-06-23T14:00:53.925Z,22.40
2023-06-23T14:03:41.561Z,22.40
2023-06-23T14:06:29.318Z,22.30
2023-06-23T14:09:18.227Z,22.30
2023-06-23T14:12:06.728Z,22.40
2023-06-23T14:14:54.338Z,22.40
2023-06-23T14:17:42.309Z,22.50
2023-06-23T14:20:30.368Z,22.50
2023-06-23T14:23:17.830Z,22.50
2023-06-23T14:26:05.785Z,22.60
2023-06-23T14:28:53.286Z,22.70
2023-06-23T14:31:40.926Z,22.70
2023-06-23T14:34:28.756Z,22.70
2023-06-23T14:37:16.306Z,22.70
2023-06-23T14:40:05.759Z,22.70
2023-06-23T14:42:53.315Z,22.90
2023-06-23T14:45:41.928Z,22.90
2023-06-23T14:48:29.652Z,22.90
2023-06-23T14:51:17.528Z,23.00
2023-06-23T14:54:05.453Z,23.10
2023-06-23T14:56:52.969Z,23.20
2023-06-23T14:59:40.510Z,23.20
2023-06-23T15:02:28.979Z,23.20
2023-06-23T15:05:16.903Z,23.20
2023-06-23T15:08:06.055Z,23.10
2023-06-23T15:10:55.420Z,23.00
2023-06-23T15:13:43.191Z,22.90
2023-06-23T15:16:30.790Z,23.00
2023-06-23T15:19:18.310Z,22.90
2023-06-23T15:22:07.785Z,22.80
2023-06-23T15:24:55.572Z,22.70
2023-06-23T15:27:43.830Z,22.60
2023-06-23T15:30:31.883Z,22.50
2023-06-23T15:33:19.396Z,22.50
2023-06-23T15:36:08.281Z,22.40
2023-06-23T15:38:55.865Z,22.30
2023-06-23T15:41:43.413Z,22.20
2023-06-23T15:44:30.931Z,22.10
2023-06-23T15:47:18.605Z,22.10
2023-06-23T15:50:06.695Z,22.10
2023-06-23T15:52:56.584Z,21.90
2023-06-23T15:55:44.246Z,21.90
2023-06-23T15:58:32.243Z,21.90
2023-06-23T16:01:19.873Z,21.80
2023-06-23T16:04:07.690Z,21.80
2023-06-23T16:06:55.549Z,21.90
2023-06-23T16:09:43.307Z,21.80
2023-06-23T16:12:30.927Z,21.70
2023-06-23T16:15:18.622Z,21.70
2023-06-23T16:18:06.425Z,21.60
2023-06-23T16:20:54.178Z,21.60
2023-06-23T16:23:41.692Z,21.60
2023-06-23T16:26:29.236Z,21.60
2023-06-23T16:29:16.778Z,21.70
2023-06-23T16:32:05.132Z,21.70
2023-06-23T16:34:59.486Z,21.70
2023-06-23T16:37:46.991Z,21.60
2023-06-23T16:40:34.753Z,21.60
2023-06-23T16:43:22.330Z,21.50
2023-06-23T16:46:09.921Z,21.40
2023-06-23T16:48:57.470Z,21.40
2023-06-23T16:51:46.603Z,21.40
2023-06-23T16:54:36.030Z,21.40
2023-06-23T16:57:24.603Z,21.40
2023-06-23T17:00:13.414Z,21.40
2023-06-23T17:03:01.196Z,21.30
2023-06-23T17:05:48.925Z,21.30
2023-06-23T17:08:36.486Z,21.30
2023-06-23T17:11:24.004Z,21.30
2023-06-23T17:14:14.774Z,21.30
2023-06-23T17:17:02.437Z,21.30
2023-06-23T17:19:51.891Z,21.30
2023-06-23T17:22:41.030Z,21.30
2023-06-23T17:25:28.530Z,21.30
2023-06-23T17:28:16.114Z,21.20
2023-06-23T17:31:03.850Z,21.20
2023-06-23T17:33:51.529Z,21.20
2023-06-23T17:36:40.837Z,21.20
2023-06-23T17:39:28.399Z,21.30
2023-06-23T17:42:15.890Z,21.30
2023-06-23T17:45:03.772Z,21.40
2023-06-23T17:47:51.788Z,21.40
2023-06-23T17:50:39.562Z,21.40
2023-06-23T17:53:27.213Z,21.40
2023-06-23T17:56:14.753Z,21.40
2023-06-23T17:59:02.250Z,21.40
2023-06-23T18:01:49.819Z,21.30
2023-06-23T18:04:37.396Z,21.10
2023-06-23T18:07:25.076Z,21.00
2023-06-23T18:10:12.667Z,20.90
2023-06-23T18:13:00.178Z,20.80
2023-06-23T18:15:47.757Z,20.80
2023-06-23T18:18:35.328Z,20.70
2023-06-23T18:21:24.836Z,20.70
2023-06-23T18:24:14.050Z,20.70
2023-06-23T18:27:01.581Z,20.60
2023-06-23T18:29:49.190Z,20.60
2023-06-23T18:32:39.455Z,20.50
2023-06-23T18:35:26.990Z,20.50
2023-06-23T18:38:15.197Z,20.50
2023-06-23T18:41:03.201Z,20.40
2023-06-23T18:43:50.816Z,20.30
2023-06-23T18:46:40.411Z,20.30
2023-06-23T18:49:27.908Z,20.20
2023-06-23T18:52:16.358Z,20.10
2023-06-23T18:55:04.927Z,20.10
2023-06-23T18:57:52.525Z,20.00
2023-06-23T19:00:40.145Z,19.90
2023-06-23T19:03:28.288Z,19.90
2023-06-23T19:06:16.000Z,19.80
2023-06-23T19:09:04.107Z,19.70
2023-06-23T19:11:51.915Z,19.70
2023-06-23T19:14:39.673Z,19.60
2023-06-23T19:17:27.275Z,19.50
2023-06-23T19:20:15.162Z,19.50
2023-06-23T19:23:03.728Z,19.40
2023-06-23T19:25:51.525Z,19.40
2023-06-23T19:28:39.265Z,19.40
2023-06-23T19:31:26.966Z,19.30
2023-06-23T19:34:15.065Z,19.30
2023-06-23T19:37:03.303Z,19.20
2023-06-23T19:39:59.907Z,19.20
2023-06-23T19:42:48.460Z,19.10
2023-06-23T19:45:35.898Z,19.10
2023-06-23T19:48:23.467Z,19.00
2023-06-23T19:51:11.004Z,19.00
2023-06-23T19:53:59.441Z,18.90
2023-06-23T19:56:49.716Z,18.90
2023-06-23T19:59:39.024Z,18.90
2023-06-23T20:02:28.265Z,18.90
2023-06-23T20:05:18.426Z,18.90
2023-06-23T20:08:06.057Z,18.90
2023-06-23T20:10:53.606Z,18.80
2023-06-23T20:13:41.199Z,18.80
2023-06-23T20:16:28.865Z,18.80
2023-06-23T20:19:17.526Z,18.80
2023-06-23T20:22:07.005Z,18.80
2023-06-23T20:24:54.499Z,18.70
2023-06-23T20:27:42.042Z,18.80
2023-06-23T20:30:30.221Z,18.70
2023-06-23T20:33:17.867Z,18.70
2023-06-23T20:36:05.993Z,18.70
2023-06-23T20:38:53.510Z,18.60
2023-06-23T20:41:41.103Z,18.60
2023-06-23T20:44:28.642Z,18.50
2023-06-23T20:47:16.532Z,18.40
2023-06-23T20:50:04.637Z,18.40
2023-06-23T20:52:52.461Z,18.30
2023-06-23T20:55:40.028Z,18.20
2023-06-23T20:58:27.710Z,18.20
2023-06-23T21:01:15.272Z,18.20
2023-06-23T21:04:02.972Z,18.20
2023-06-23T21:06:50.587Z,18.10
2023-06-23T21:09:38.206Z,18.20
2023-06-23T21:12:25.749Z,18.20
2023-06-23T21:15:13.215Z,18.10
2023-06-23T21:18:00.922Z,18.10
2023-06-23T21:20:48.993Z,18.10
2023-06-23T21:23:36.552Z,18.00
2023-06-23T21:26:25.136Z,18.00
2023-06-23T21:29:13.034Z,18.00
2023-06-23T21:32:00.684Z,18.00
2023-06-23T21:34:48.320Z,18.00
2023-06-23T21:37:35.912Z,18.00
2023-06-23T21:40:23.526Z,17.90
2023-06-23T21:43:11.756Z,17.80
2023-06-23T21:45:59.300Z,17.70
2023-06-23T21:48:55.119Z,17.60
2023-06-23T21:51:44.028Z,17.50
2023-06-23T21:54:31.609Z,17.50
2023-06-23T21:57:19.459Z,17.40
2023-06-23T22:00:09.888Z,17.40
2023-06-23T22:02:57.507Z,17.30
2023-06-23T22:05:45.309Z,17.30
2023-06-23T22:08:33.797Z,17.30
2023-06-23T22:11:24.406Z,17.20
2023-06-23T22:14:17.061Z,17.20
2023-06-23T22:17:05.135Z,17.20
2023-06-23T22:19:52.873Z,17.20
2023-06-23T22:22:41.668Z,17.20
2023-06-23T22:25:29.186Z,17.20
2023-06-23T22:28:16.755Z,17.20
2023-06-23T22:31:07.219Z,17.20
2023-06-23T22:33:54.944Z,17.20
2023-06-23T22:36:42.495Z,17.20
2023-06-23T22:39:30.047Z,17.30
2023-06-23T22:42:17.629Z,17.30
2023-06-23T22:45:05.852Z,17.40
2023-06-23T22:47:53.472Z,17.40
2023-06-23T22:50:41.066Z,17.40
2023-06-23T22:53:28.782Z,17.40
2023-06-23T22:56:18.421Z,17.40
2023-06-23T22:59:06.168Z,17.30
2023-06-23T23:01:53.712Z,17.30
2023-06-23T23:04:41.704Z,17.30
2023-06-23T23:07:29.252Z,17.20
2023-06-23T23:10:17.512Z,17.20
2023-06-23T23:13:05.334Z,17.10
2023-06-23T23:15:52.881Z,17.10
2023-06-23T23:18:40.339Z,17.00
2023-06-23T23:21:27.886Z,16.90
2023-06-23T23:24:21.264Z,16.80
2023-06-23T23:27:09.637Z,16.70
2023-06-23T23:29:57.155Z,16.70
2023-06-23T23:32:49.541Z,16.70
2023-06-23T23:35:41.117Z,16.60
2023-06-23T23:38:28.779Z,16.60
2023-06-23T23:41:16.379Z,16.60
2023-06-23T23:44:04.312Z,16.60
2023-06-23T23:46:52.034Z,16.60
2023-06-23T23:49:39.672Z,16.60
2023-06-23T23:52:27.281Z,16.60
2023-06-23T23:55:14.874Z,16.60
2023-06-23T23:58:02.528Z,16.60
